Terminal Aerodrome Forecast
Issued by NWS

Home | Current Version | Previous Version | Graphics & Text | Print | Product List | Glossary On
Versions: 1 2 3 4 5 6 7 8 9 10 11 12 13 14 15 16 17 18 19 20
000
FTUS43 KFGF 122145 AAA
TAFBJI
TAF AMD
KBJI 122145Z 1222/1318 15007KT P6SM OVC008
     FM130800 21006KT P6SM -FZDZ OVC009
     FM131000 25008KT P6SM -FZDZSN OVC008
     FM131400 33014G23KT 4SM -SN OVC010=

USA.gov is the U.S. government's official web portal to all federal, state and local government web resources and services.